sensor_id;sensor_type;location;lat;lon;timestamp;P1;durP1;ratioP1;P2;durP2;ratioP2
53971;SDS011;40530;53.062;6.078;2023-04-23T00:02:11;36.65;;;23.00;;
53971;SDS011;40530;53.062;6.078;2023-04-23T00:04:39;36.20;;;23.73;;
53971;SDS011;40530;53.062;6.078;2023-04-23T00:07:11;39.78;;;22.58;;
53971;SDS011;40530;53.062;6.078;2023-04-23T00:09:38;34.97;;;22.80;;
53971;SDS011;40530;53.062;6.078;2023-04-23T00:12:04;37.55;;;23.45;;
53971;SDS011;40530;53.062;6.078;2023-04-23T00:14:31;35.80;;;23.48;;
53971;SDS011;40530;53.062;6.078;2023-04-23T00:16:57;36.08;;;23.85;;
53971;SDS011;40530;53.062;6.078;2023-04-23T00:19:23;34.47;;;22.40;;
53971;SDS011;40530;53.062;6.078;2023-04-23T00:21:49;40.25;;;23.80;;
53971;SDS011;40530;53.062;6.078;2023-04-23T00:24:16;38.88;;;24.55;;
53971;SDS011;40530;53.062;6.078;2023-04-23T00:26:43;36.88;;;23.38;;
53971;SDS011;40530;53.062;6.078;2023-04-23T00:29:09;41.40;;;23.27;;
53971;SDS011;40530;53.062;6.078;2023-04-23T00:31:35;37.55;;;24.00;;
53971;SDS011;40530;53.062;6.078;2023-04-23T00:34:01;37.13;;;22.98;;
53971;SDS011;40530;53.062;6.078;2023-04-23T00:36:27;46.38;;;25.05;;
53971;SDS011;40530;53.062;6.078;2023-04-23T00:38:53;43.17;;;25.02;;
53971;SDS011;40530;53.062;6.078;2023-04-23T00:41:19;40.90;;;24.80;;
53971;SDS011;40530;53.062;6.078;2023-04-23T00:43:46;42.97;;;26.58;;
53971;SDS011;40530;53.062;6.078;2023-04-23T00:46:13;42.35;;;25.40;;
53971;SDS011;40530;53.062;6.078;2023-04-23T00:48:39;45.58;;;26.00;;
53971;SDS011;40530;53.062;6.078;2023-04-23T00:51:05;36.10;;;24.92;;
53971;SDS011;40530;53.062;6.078;2023-04-23T00:53:31;40.55;;;26.08;;
53971;SDS011;40530;53.062;6.078;2023-04-23T00:55:58;43.15;;;25.77;;
53971;SDS011;40530;53.062;6.078;2023-04-23T00:58:27;38.70;;;24.35;;
53971;SDS011;40530;53.062;6.078;2023-04-23T01:00:53;34.90;;;24.25;;
53971;SDS011;40530;53.062;6.078;2023-04-23T01:03:19;40.83;;;24.35;;
53971;SDS011;40530;53.062;6.078;2023-04-23T01:05:46;39.95;;;24.52;;
53971;SDS011;40530;53.062;6.078;2023-04-23T01:08:14;40.33;;;24.73;;
53971;SDS011;40530;53.062;6.078;2023-04-23T01:10:41;44.17;;;25.98;;
53971;SDS011;40530;53.062;6.078;2023-04-23T01:13:08;43.45;;;27.40;;
53971;SDS011;40530;53.062;6.078;2023-04-23T01:15:37;43.92;;;26.42;;
53971;SDS011;40530;53.062;6.078;2023-04-23T01:18:03;45.58;;;26.90;;
53971;SDS011;40530;53.062;6.078;2023-04-23T01:20:31;47.42;;;26.83;;
53971;SDS011;40530;53.062;6.078;2023-04-23T01:22:58;42.92;;;26.42;;
53971;SDS011;40530;53.062;6.078;2023-04-23T01:25:24;53.80;;;28.52;;
53971;SDS011;40530;53.062;6.078;2023-04-23T01:27:50;50.00;;;30.52;;
53971;SDS011;40530;53.062;6.078;2023-04-23T01:30:16;58.33;;;29.30;;
53971;SDS011;40530;53.062;6.078;2023-04-23T01:32:42;51.38;;;28.50;;
53971;SDS011;40530;53.062;6.078;2023-04-23T01:35:09;65.50;;;32.25;;
53971;SDS011;40530;53.062;6.078;2023-04-23T01:37:37;69.47;;;31.65;;
53971;SDS011;40530;53.062;6.078;2023-04-23T01:40:03;87.18;;;35.25;;
53971;SDS011;40530;53.062;6.078;2023-04-23T01:42:30;136.15;;;35.00;;
53971;SDS011;40530;53.062;6.078;2023-04-23T01:44:56;129.50;;;36.75;;
53971;SDS011;40530;53.062;6.078;2023-04-23T01:47:22;136.60;;;36.15;;
53971;SDS011;40530;53.062;6.078;2023-04-23T01:49:49;98.25;;;37.60;;
53971;SDS011;40530;53.062;6.078;2023-04-23T01:52:15;101.90;;;39.30;;
53971;SDS011;40530;53.062;6.078;2023-04-23T01:54:41;123.55;;;39.97;;
53971;SDS011;40530;53.062;6.078;2023-04-23T01:57:08;161.25;;;40.90;;
53971;SDS011;40530;53.062;6.078;2023-04-23T01:59:35;154.68;;;39.20;;
53971;SDS011;40530;53.062;6.078;2023-04-23T02:02:02;94.47;;;43.33;;
53971;SDS011;40530;53.062;6.078;2023-04-23T02:04:28;208.20;;;50.17;;
53971;SDS011;40530;53.062;6.078;2023-04-23T02:06:55;258.90;;;50.78;;
53971;SDS011;40530;53.062;6.078;2023-04-23T02:09:21;219.07;;;49.22;;
53971;SDS011;40530;53.062;6.078;2023-04-23T02:11:47;143.93;;;53.03;;
53971;SDS011;40530;53.062;6.078;2023-04-23T02:14:13;200.27;;;53.80;;
53971;SDS011;40530;53.062;6.078;2023-04-23T02:16:39;169.05;;;54.50;;
53971;SDS011;40530;53.062;6.078;2023-04-23T02:19:05;118.35;;;54.90;;
53971;SDS011;40530;53.062;6.078;2023-04-23T02:21:31;142.43;;;56.03;;
53971;SDS011;40530;53.062;6.078;2023-04-23T02:23:57;139.55;;;57.03;;
53971;SDS011;40530;53.062;6.078;2023-04-23T02:26:23;129.27;;;58.35;;
53971;SDS011;40530;53.062;6.078;2023-04-23T02:28:49;151.82;;;60.63;;
53971;SDS011;40530;53.062;6.078;2023-04-23T02:31:15;137.10;;;58.95;;
53971;SDS011;40530;53.062;6.078;2023-04-23T02:33:43;139.23;;;60.13;;
53971;SDS011;40530;53.062;6.078;2023-04-23T02:36:10;129.35;;;60.20;;
53971;SDS011;40530;53.062;6.078;2023-04-23T02:38:37;134.23;;;60.55;;
53971;SDS011;40530;53.062;6.078;2023-04-23T02:41:06;124.75;;;61.53;;
53971;SDS011;40530;53.062;6.078;2023-04-23T02:43:32;123.20;;;63.00;;
53971;SDS011;40530;53.062;6.078;2023-04-23T02:45:58;123.70;;;60.13;;
53971;SDS011;40530;53.062;6.078;2023-04-23T02:48:24;120.13;;;57.53;;
53971;SDS011;40530;53.062;6.078;2023-04-23T02:50:51;134.38;;;62.28;;
53971;SDS011;40530;53.062;6.078;2023-04-23T02:53:17;126.80;;;60.25;;
53971;SDS011;40530;53.062;6.078;2023-04-23T02:55:43;138.38;;;64.38;;
53971;SDS011;40530;53.062;6.078;2023-04-23T02:58:10;136.70;;;63.35;;
53971;SDS011;40530;53.062;6.078;2023-04-23T03:00:36;141.65;;;66.68;;
53971;SDS011;40530;53.062;6.078;2023-04-23T03:03:02;128.50;;;62.40;;
53971;SDS011;40530;53.062;6.078;2023-04-23T03:05:28;146.88;;;62.40;;
53971;SDS011;40530;53.062;6.078;2023-04-23T03:07:54;132.77;;;63.90;;
53971;SDS011;40530;53.062;6.078;2023-04-23T03:10:20;137.40;;;66.45;;
53971;SDS011;40530;53.062;6.078;2023-04-23T03:12:46;132.95;;;65.47;;
53971;SDS011;40530;53.062;6.078;2023-04-23T03:15:12;136.77;;;64.75;;
53971;SDS011;40530;53.062;6.078;2023-04-23T03:17:38;130.88;;;64.32;;
53971;SDS011;40530;53.062;6.078;2023-04-23T03:20:05;152.85;;;66.47;;
53971;SDS011;40530;53.062;6.078;2023-04-23T03:22:32;143.90;;;65.70;;
53971;SDS011;40530;53.062;6.078;2023-04-23T03:24:58;145.40;;;66.15;;
53971;SDS011;40530;53.062;6.078;2023-04-23T03:27:24;138.90;;;66.07;;
53971;SDS011;40530;53.062;6.078;2023-04-23T03:29:50;150.20;;;67.63;;
53971;SDS011;40530;53.062;6.078;2023-04-23T03:32:16;153.32;;;69.03;;
53971;SDS011;40530;53.062;6.078;2023-04-23T03:34:42;137.10;;;66.18;;
53971;SDS011;40530;53.062;6.078;2023-04-23T03:37:08;153.77;;;69.70;;
53971;SDS011;40530;53.062;6.078;2023-04-23T03:39:34;136.52;;;66.43;;
53971;SDS011;40530;53.062;6.078;2023-04-23T03:42:00;140.70;;;68.80;;
53971;SDS011;40530;53.062;6.078;2023-04-23T03:44:26;146.20;;;68.38;;
53971;SDS011;40530;53.062;6.078;2023-04-23T03:46:52;153.00;;;68.18;;
53971;SDS011;40530;53.062;6.078;2023-04-23T03:49:18;153.43;;;66.93;;
53971;SDS011;40530;53.062;6.078;2023-04-23T03:51:45;156.38;;;68.72;;
53971;SDS011;40530;53.062;6.078;2023-04-23T03:54:11;137.65;;;66.43;;
53971;SDS011;40530;53.062;6.078;2023-04-23T03:56:37;125.28;;;62.85;;
53971;SDS011;40530;53.062;6.078;2023-04-23T03:59:04;144.63;;;66.35;;
53971;SDS011;40530;53.062;6.078;2023-04-23T04:01:30;145.90;;;68.57;;
53971;SDS011;40530;53.062;6.078;2023-04-23T04:03:57;143.35;;;66.63;;
53971;SDS011;40530;53.062;6.078;2023-04-23T04:06:23;134.02;;;68.88;;
53971;SDS011;40530;53.062;6.078;2023-04-23T04:08:49;132.95;;;63.58;;
53971;SDS011;40530;53.062;6.078;2023-04-23T04:11:15;141.13;;;63.30;;
53971;SDS011;40530;53.062;6.078;2023-04-23T04:13:41;129.32;;;62.25;;
53971;SDS011;40530;53.062;6.078;2023-04-23T04:16:07;132.85;;;64.13;;
53971;SDS011;40530;53.062;6.078;2023-04-23T04:18:33;123.90;;;62.83;;
53971;SDS011;40530;53.062;6.078;2023-04-23T04:20:59;123.45;;;63.80;;
53971;SDS011;40530;53.062;6.078;2023-04-23T04:23:25;136.23;;;63.97;;
53971;SDS011;40530;53.062;6.078;2023-04-23T04:25:52;123.93;;;61.35;;
53971;SDS011;40530;53.062;6.078;2023-04-23T04:28:20;126.97;;;62.85;;
53971;SDS011;40530;53.062;6.078;2023-04-23T04:30:46;125.57;;;61.42;;
53971;SDS011;40530;53.062;6.078;2023-04-23T04:33:14;126.20;;;62.65;;
53971;SDS011;40530;53.062;6.078;2023-04-23T04:35:40;126.95;;;63.40;;
53971;SDS011;40530;53.062;6.078;2023-04-23T04:38:06;124.38;;;60.33;;
53971;SDS011;40530;53.062;6.078;2023-04-23T04:40:33;127.95;;;60.95;;
53971;SDS011;40530;53.062;6.078;2023-04-23T04:42:59;136.80;;;63.90;;
53971;SDS011;40530;53.062;6.078;2023-04-23T04:45:25;137.75;;;63.53;;
53971;SDS011;40530;53.062;6.078;2023-04-23T04:47:51;138.30;;;65.68;;
53971;SDS011;40530;53.062;6.078;2023-04-23T04:50:17;126.25;;;61.35;;
53971;SDS011;40530;53.062;6.078;2023-04-23T04:52:43;125.65;;;63.63;;
53971;SDS011;40530;53.062;6.078;2023-04-23T04:55:10;114.07;;;57.13;;
53971;SDS011;40530;53.062;6.078;2023-04-23T04:57:36;117.18;;;61.45;;
53971;SDS011;40530;53.062;6.078;2023-04-23T05:00:17;114.50;;;58.28;;
53971;SDS011;40530;53.062;6.078;2023-04-23T05:02:46;115.32;;;59.80;;
53971;SDS011;40530;53.062;6.078;2023-04-23T05:05:13;112.65;;;59.08;;
53971;SDS011;40530;53.062;6.078;2023-04-23T05:07:39;108.20;;;58.85;;
53971;SDS011;40530;53.062;6.078;2023-04-23T05:10:05;101.30;;;54.72;;
53971;SDS011;40530;53.062;6.078;2023-04-23T05:12:31;106.57;;;53.35;;
53971;SDS011;40530;53.062;6.078;2023-04-23T05:14:57;96.90;;;54.65;;
53971;SDS011;40530;53.062;6.078;2023-04-23T05:17:24;100.60;;;53.75;;
53971;SDS011;40530;53.062;6.078;2023-04-23T05:19:50;89.07;;;51.97;;
53971;SDS011;40530;53.062;6.078;2023-04-23T05:22:16;91.45;;;52.30;;
53971;SDS011;40530;53.062;6.078;2023-04-23T05:24:42;133.30;;;75.60;;
53971;SDS011;40530;53.062;6.078;2023-04-23T05:27:10;104.70;;;58.08;;
53971;SDS011;40530;53.062;6.078;2023-04-23T05:29:36;100.03;;;54.85;;
53971;SDS011;40530;53.062;6.078;2023-04-23T05:32:02;85.43;;;49.95;;
53971;SDS011;40530;53.062;6.078;2023-04-23T05:34:28;87.57;;;50.42;;
53971;SDS011;40530;53.062;6.078;2023-04-23T05:36:55;90.65;;;50.67;;
53971;SDS011;40530;53.062;6.078;2023-04-23T05:39:20;74.22;;;46.50;;
53971;SDS011;40530;53.062;6.078;2023-04-23T05:41:50;75.47;;;47.28;;
53971;SDS011;40530;53.062;6.078;2023-04-23T05:44:16;78.63;;;47.33;;
53971;SDS011;40530;53.062;6.078;2023-04-23T05:46:42;80.60;;;48.25;;
53971;SDS011;40530;53.062;6.078;2023-04-23T05:49:08;75.53;;;47.42;;
53971;SDS011;40530;53.062;6.078;2023-04-23T05:51:34;77.53;;;47.10;;
53971;SDS011;40530;53.062;6.078;2023-04-23T05:54:00;71.32;;;43.67;;
53971;SDS011;40530;53.062;6.078;2023-04-23T05:56:26;71.43;;;45.00;;
53971;SDS011;40530;53.062;6.078;2023-04-23T05:58:52;75.25;;;46.13;;
53971;SDS011;40530;53.062;6.078;2023-04-23T06:01:19;71.05;;;45.50;;
53971;SDS011;40530;53.062;6.078;2023-04-23T06:03:45;73.90;;;46.17;;
53971;SDS011;40530;53.062;6.078;2023-04-23T06:06:11;68.47;;;44.90;;
53971;SDS011;40530;53.062;6.078;2023-04-23T06:08:37;74.38;;;44.17;;
53971;SDS011;40530;53.062;6.078;2023-04-23T06:11:03;80.20;;;46.85;;
53971;SDS011;40530;53.062;6.078;2023-04-23T06:13:30;69.65;;;45.17;;
53971;SDS011;40530;53.062;6.078;2023-04-23T06:15:56;79.22;;;47.53;;
53971;SDS011;40530;53.062;6.078;2023-04-23T06:18:22;76.78;;;47.17;;
53971;SDS011;40530;53.062;6.078;2023-04-23T06:20:48;73.25;;;46.17;;
53971;SDS011;40530;53.062;6.078;2023-04-23T06:23:15;73.07;;;47.38;;
53971;SDS011;40530;53.062;6.078;2023-04-23T06:25:45;66.15;;;44.38;;
53971;SDS011;40530;53.062;6.078;2023-04-23T06:28:11;71.50;;;46.10;;
53971;SDS011;40530;53.062;6.078;2023-04-23T06:30:36;73.53;;;46.45;;
53971;SDS011;40530;53.062;6.078;2023-04-23T06:33:02;71.90;;;46.45;;
53971;SDS011;40530;53.062;6.078;2023-04-23T06:35:29;68.32;;;44.55;;
53971;SDS011;40530;53.062;6.078;2023-04-23T06:37:55;67.15;;;44.00;;
53971;SDS011;40530;53.062;6.078;2023-04-23T06:40:21;60.30;;;42.10;;
53971;SDS011;40530;53.062;6.078;2023-04-23T06:42:47;69.13;;;44.00;;
53971;SDS011;40530;53.062;6.078;2023-04-23T06:45:14;61.58;;;42.63;;
53971;SDS011;40530;53.062;6.078;2023-04-23T06:47:41;65.35;;;43.70;;
53971;SDS011;40530;53.062;6.078;2023-04-23T06:50:07;65.35;;;46.13;;
53971;SDS011;40530;53.062;6.078;2023-04-23T06:52:33;59.78;;;41.60;;
53971;SDS011;40530;53.062;6.078;2023-04-23T06:55:00;59.88;;;40.47;;
53971;SDS011;40530;53.062;6.078;2023-04-23T06:57:26;59.08;;;40.53;;
53971;SDS011;40530;53.062;6.078;2023-04-23T06:59:52;59.10;;;41.25;;
53971;SDS011;40530;53.062;6.078;2023-04-23T07:02:18;55.00;;;40.22;;
53971;SDS011;40530;53.062;6.078;2023-04-23T07:04:44;58.88;;;41.13;;
53971;SDS011;40530;53.062;6.078;2023-04-23T07:07:11;125.18;;;84.90;;
53971;SDS011;40530;53.062;6.078;2023-04-23T07:09:37;102.28;;;67.70;;
53971;SDS011;40530;53.062;6.078;2023-04-23T07:12:03;53.22;;;38.00;;
53971;SDS011;40530;53.062;6.078;2023-04-23T07:14:29;51.05;;;36.55;;
53971;SDS011;40530;53.062;6.078;2023-04-23T07:16:55;56.00;;;38.53;;
53971;SDS011;40530;53.062;6.078;2023-04-23T07:19:21;48.35;;;35.00;;
53971;SDS011;40530;53.062;6.078;2023-04-23T07:21:47;48.60;;;34.97;;
53971;SDS011;40530;53.062;6.078;2023-04-23T07:24:13;47.75;;;35.83;;
53971;SDS011;40530;53.062;6.078;2023-04-23T07:26:40;45.22;;;34.22;;
53971;SDS011;40530;53.062;6.078;2023-04-23T07:29:06;44.95;;;32.58;;
53971;SDS011;40530;53.062;6.078;2023-04-23T07:31:35;45.13;;;33.38;;
53971;SDS011;40530;53.062;6.078;2023-04-23T07:34:01;42.58;;;31.40;;
53971;SDS011;40530;53.062;6.078;2023-04-23T07:36:28;41.72;;;31.73;;
53971;SDS011;40530;53.062;6.078;2023-04-23T07:38:55;36.33;;;28.85;;
53971;SDS011;40530;53.062;6.078;2023-04-23T07:41:22;36.33;;;28.42;;
53971;SDS011;40530;53.062;6.078;2023-04-23T07:43:48;35.38;;;29.00;;
53971;SDS011;40530;53.062;6.078;2023-04-23T07:46:15;36.85;;;28.02;;
53971;SDS011;40530;53.062;6.078;2023-04-23T07:48:41;35.53;;;27.00;;
53971;SDS011;40530;53.062;6.078;2023-04-23T07:51:07;35.35;;;27.42;;
53971;SDS011;40530;53.062;6.078;2023-04-23T07:53:33;35.15;;;27.80;;
53971;SDS011;40530;53.062;6.078;2023-04-23T07:55:59;35.35;;;26.90;;
53971;SDS011;40530;53.062;6.078;2023-04-23T07:58:25;34.10;;;26.02;;
53971;SDS011;40530;53.062;6.078;2023-04-23T08:00:51;35.15;;;26.38;;
53971;SDS011;40530;53.062;6.078;2023-04-23T08:03:17;31.65;;;25.50;;
53971;SDS011;40530;53.062;6.078;2023-04-23T08:05:43;30.05;;;24.08;;
53971;SDS011;40530;53.062;6.078;2023-04-23T08:08:10;30.20;;;24.75;;
53971;SDS011;40530;53.062;6.078;2023-04-23T08:10:36;27.88;;;22.50;;
53971;SDS011;40530;53.062;6.078;2023-04-23T08:13:02;35.92;;;27.77;;
53971;SDS011;40530;53.062;6.078;2023-04-23T08:15:28;45.50;;;34.38;;
53971;SDS011;40530;53.062;6.078;2023-04-23T08:17:55;25.90;;;21.15;;
53971;SDS011;40530;53.062;6.078;2023-04-23T08:20:21;27.30;;;19.98;;
53971;SDS011;40530;53.062;6.078;2023-04-23T08:22:48;27.45;;;21.55;;
53971;SDS011;40530;53.062;6.078;2023-04-23T08:25:17;25.52;;;20.23;;
53971;SDS011;40530;53.062;6.078;2023-04-23T08:27:44;25.08;;;19.60;;
53971;SDS011;40530;53.062;6.078;2023-04-23T08:30:10;25.45;;;21.27;;
53971;SDS011;40530;53.062;6.078;2023-04-23T08:32:40;28.30;;;21.70;;
53971;SDS011;40530;53.062;6.078;2023-04-23T08:35:06;23.08;;;19.08;;
53971;SDS011;40530;53.062;6.078;2023-04-23T08:37:32;23.27;;;19.05;;
53971;SDS011;40530;53.062;6.078;2023-04-23T08:39:59;19.42;;;15.13;;
53971;SDS011;40530;53.062;6.078;2023-04-23T08:44:51;17.95;;;15.32;;
53971;SDS011;40530;53.062;6.078;2023-04-23T08:47:18;21.77;;;17.13;;
53971;SDS011;40530;53.062;6.078;2023-04-23T08:49:48;19.98;;;16.60;;
53971;SDS011;40530;53.062;6.078;2023-04-23T08:52:21;21.58;;;16.33;;
53971;SDS011;40530;53.062;6.078;2023-04-23T08:54:48;20.42;;;14.40;;
53971;SDS011;40530;53.062;6.078;2023-04-23T08:57:15;18.60;;;14.07;;
53971;SDS011;40530;53.062;6.078;2023-04-23T08:59:42;15.93;;;12.80;;
53971;SDS011;40530;53.062;6.078;2023-04-23T09:02:08;17.63;;;14.63;;
53971;SDS011;40530;53.062;6.078;2023-04-23T09:04:35;17.75;;;13.48;;
53971;SDS011;40530;53.062;6.078;2023-04-23T09:07:01;18.52;;;11.63;;
53971;SDS011;40530;53.062;6.078;2023-04-23T09:09:28;18.30;;;12.52;;
53971;SDS011;40530;53.062;6.078;2023-04-23T09:11:55;19.48;;;12.20;;
53971;SDS011;40530;53.062;6.078;2023-04-23T09:14:22;15.32;;;12.75;;
53971;SDS011;40530;53.062;6.078;2023-04-23T09:16:51;17.92;;;11.48;;
53971;SDS011;40530;53.062;6.078;2023-04-23T09:19:17;14.00;;;10.15;;
53971;SDS011;40530;53.062;6.078;2023-04-23T09:21:44;17.10;;;9.30;;
53971;SDS011;40530;53.062;6.078;2023-04-23T09:24:11;11.95;;;8.93;;
53971;SDS011;40530;53.062;6.078;2023-04-23T09:26:45;14.48;;;8.65;;
53971;SDS011;40530;53.062;6.078;2023-04-23T09:29:12;15.38;;;9.00;;
53971;SDS011;40530;53.062;6.078;2023-04-23T09:31:41;13.38;;;8.43;;
53971;SDS011;40530;53.062;6.078;2023-04-23T09:34:07;11.38;;;7.53;;
53971;SDS011;40530;53.062;6.078;2023-04-23T09:36:35;15.57;;;9.82;;
53971;SDS011;40530;53.062;6.078;2023-04-23T09:39:02;16.33;;;8.35;;
53971;SDS011;40530;53.062;6.078;2023-04-23T09:41:36;13.32;;;7.72;;
53971;SDS011;40530;53.062;6.078;2023-04-23T09:44:02;31.40;;;19.60;;
53971;SDS011;40530;53.062;6.078;2023-04-23T09:46:35;26.83;;;17.23;;
53971;SDS011;40530;53.062;6.078;2023-04-23T09:49:02;11.20;;;6.88;;
53971;SDS011;40530;53.062;6.078;2023-04-23T09:51:31;11.20;;;6.75;;
53971;SDS011;40530;53.062;6.078;2023-04-23T09:53:57;10.25;;;5.88;;
53971;SDS011;40530;53.062;6.078;2023-04-23T09:56:26;9.98;;;7.20;;
53971;SDS011;40530;53.062;6.078;2023-04-23T09:58:52;11.85;;;6.95;;
53971;SDS011;40530;53.062;6.078;2023-04-23T10:01:18;12.02;;;6.53;;
53971;SDS011;40530;53.062;6.078;2023-04-23T10:03:52;13.27;;;6.65;;
53971;SDS011;40530;53.062;6.078;2023-04-23T10:06:18;10.65;;;7.07;;
53971;SDS011;40530;53.062;6.078;2023-04-23T10:08:44;12.07;;;6.90;;
53971;SDS011;40530;53.062;6.078;2023-04-23T10:11:11;13.95;;;6.95;;
53971;SDS011;40530;53.062;6.078;2023-04-23T10:13:37;9.88;;;6.43;;
53971;SDS011;40530;53.062;6.078;2023-04-23T10:16:03;11.43;;;7.03;;
53971;SDS011;40530;53.062;6.078;2023-04-23T10:18:30;15.00;;;4.90;;
53971;SDS011;40530;53.062;6.078;2023-04-23T10:20:57;15.23;;;6.10;;
53971;SDS011;40530;53.062;6.078;2023-04-23T10:23:23;9.43;;;4.45;;
53971;SDS011;40530;53.062;6.078;2023-04-23T10:25:51;14.70;;;5.68;;
53971;SDS011;40530;53.062;6.078;2023-04-23T10:28:19;9.52;;;4.60;;
53971;SDS011;40530;53.062;6.078;2023-04-23T10:30:53;6.85;;;4.28;;
53971;SDS011;40530;53.062;6.078;2023-04-23T10:33:19;9.48;;;4.88;;
53971;SDS011;40530;53.062;6.078;2023-04-23T10:35:47;9.38;;;5.38;;
53971;SDS011;40530;53.062;6.078;2023-04-23T10:38:13;7.13;;;4.13;;
53971;SDS011;40530;53.062;6.078;2023-04-23T10:40:40;10.93;;;4.47;;
53971;SDS011;40530;53.062;6.078;2023-04-23T10:43:09;11.73;;;4.25;;
53971;SDS011;40530;53.062;6.078;2023-04-23T10:45:36;10.63;;;4.18;;
53971;SDS011;40530;53.062;6.078;2023-04-23T10:48:02;8.57;;;3.75;;
53971;SDS011;40530;53.062;6.078;2023-04-23T10:50:29;13.50;;;4.15;;
53971;SDS011;40530;53.062;6.078;2023-04-23T10:52:59;8.75;;;4.25;;
53971;SDS011;40530;53.062;6.078;2023-04-23T10:55:27;10.60;;;5.18;;
53971;SDS011;40530;53.062;6.078;2023-04-23T10:57:57;8.63;;;3.88;;
53971;SDS011;40530;53.062;6.078;2023-04-23T11:00:24;8.02;;;3.78;;
53971;SDS011;40530;53.062;6.078;2023-04-23T11:02:50;10.32;;;2.75;;
53971;SDS011;40530;53.062;6.078;2023-04-23T11:05:20;9.90;;;3.30;;
53971;SDS011;40530;53.062;6.078;2023-04-23T11:08:06;8.30;;;2.70;;
53971;SDS011;40530;53.062;6.078;2023-04-23T11:10:32;7.97;;;2.70;;
53971;SDS011;40530;53.062;6.078;2023-04-23T11:15:43;6.55;;;2.88;;
53971;SDS011;40530;53.062;6.078;2023-04-23T11:18:09;8.52;;;2.88;;
53971;SDS011;40530;53.062;6.078;2023-04-23T11:20:36;6.93;;;2.42;;
53971;SDS011;40530;53.062;6.078;2023-04-23T11:23:02;7.15;;;2.60;;
53971;SDS011;40530;53.062;6.078;2023-04-23T11:25:31;6.50;;;2.35;;
53971;SDS011;40530;53.062;6.078;2023-04-23T11:27:57;7.55;;;2.22;;
53971;SDS011;40530;53.062;6.078;2023-04-23T11:30:27;8.40;;;2.20;;
53971;SDS011;40530;53.062;6.078;2023-04-23T11:32:55;7.18;;;1.95;;
53971;SDS011;40530;53.062;6.078;2023-04-23T11:35:22;7.35;;;2.00;;
53971;SDS011;40530;53.062;6.078;2023-04-23T11:37:55;6.28;;;1.70;;
53971;SDS011;40530;53.062;6.078;2023-04-23T11:40:21;7.65;;;1.77;;
53971;SDS011;40530;53.062;6.078;2023-04-23T11:42:48;6.90;;;1.98;;
53971;SDS011;40530;53.062;6.078;2023-04-23T11:45:22;8.60;;;2.38;;
53971;SDS011;40530;53.062;6.078;2023-04-23T11:47:50;6.88;;;1.75;;
53971;SDS011;40530;53.062;6.078;2023-04-23T11:50:20;10.35;;;2.85;;
53971;SDS011;40530;53.062;6.078;2023-04-23T11:55:22;5.95;;;1.48;;
53971;SDS011;40530;53.062;6.078;2023-04-23T11:57:49;13.55;;;4.75;;
53971;SDS011;40530;53.062;6.078;2023-04-23T12:03:14;9.27;;;2.78;;
53971;SDS011;40530;53.062;6.078;2023-04-23T12:05:35;7.05;;;1.85;;
53971;SDS011;40530;53.062;6.078;2023-04-23T12:08:08;8.70;;;1.58;;
53971;SDS011;40530;53.062;6.078;2023-04-23T12:13:16;4.75;;;1.50;;
53971;SDS011;40530;53.062;6.078;2023-04-23T12:15:49;8.98;;;2.00;;
53971;SDS011;40530;53.062;6.078;2023-04-23T12:18:17;5.80;;;1.52;;
53971;SDS011;40530;53.062;6.078;2023-04-23T12:20:44;8.65;;;2.30;;
53971;SDS011;40530;53.062;6.078;2023-04-23T12:23:10;8.38;;;2.00;;
53971;SDS011;40530;53.062;6.078;2023-04-23T12:25:38;8.30;;;1.88;;
53971;SDS011;40530;53.062;6.078;2023-04-23T12:28:06;11.45;;;1.80;;
53971;SDS011;40530;53.062;6.078;2023-04-23T12:30:33;7.10;;;1.63;;
53971;SDS011;40530;53.062;6.078;2023-04-23T12:33:00;6.95;;;1.50;;
53971;SDS011;40530;53.062;6.078;2023-04-23T12:38:04;10.18;;;1.73;;
53971;SDS011;40530;53.062;6.078;2023-04-23T12:40:31;8.32;;;1.90;;
53971;SDS011;40530;53.062;6.078;2023-04-23T12:43:00;5.80;;;1.55;;
53971;SDS011;40530;53.062;6.078;2023-04-23T12:45:26;6.30;;;2.58;;
53971;SDS011;40530;53.062;6.078;2023-04-23T12:48:01;6.70;;;2.30;;
53971;SDS011;40530;53.062;6.078;2023-04-23T12:50:27;8.05;;;1.40;;
53971;SDS011;40530;53.062;6.078;2023-04-23T12:52:55;5.90;;;1.55;;
53971;SDS011;40530;53.062;6.078;2023-04-23T12:55:21;6.03;;;1.17;;
53971;SDS011;40530;53.062;6.078;2023-04-23T12:57:47;5.75;;;1.55;;
53971;SDS011;40530;53.062;6.078;2023-04-23T13:00:14;7.22;;;1.85;;
53971;SDS011;40530;53.062;6.078;2023-04-23T13:02:40;7.93;;;1.60;;
53971;SDS011;40530;53.062;6.078;2023-04-23T13:05:09;5.85;;;1.48;;
53971;SDS011;40530;53.062;6.078;2023-04-23T13:07:35;5.45;;;1.35;;
53971;SDS011;40530;53.062;6.078;2023-04-23T13:10:04;7.03;;;1.73;;
53971;SDS011;40530;53.062;6.078;2023-04-23T13:12:31;7.03;;;1.40;;
53971;SDS011;40530;53.062;6.078;2023-04-23T13:14:58;6.60;;;1.33;;
53971;SDS011;40530;53.062;6.078;2023-04-23T13:17:24;8.23;;;2.00;;
53971;SDS011;40530;53.062;6.078;2023-04-23T13:19:53;4.35;;;1.55;;
53971;SDS011;40530;53.062;6.078;2023-04-23T13:22:20;4.40;;;1.35;;
53971;SDS011;40530;53.062;6.078;2023-04-23T13:24:46;8.25;;;2.75;;
53971;SDS011;40530;53.062;6.078;2023-04-23T13:27:13;8.75;;;1.90;;
53971;SDS011;40530;53.062;6.078;2023-04-23T13:29:39;4.85;;;1.70;;
53971;SDS011;40530;53.062;6.078;2023-04-23T13:32:05;8.55;;;3.25;;
53971;SDS011;40530;53.062;6.078;2023-04-23T13:34:31;5.78;;;1.35;;
53971;SDS011;40530;53.062;6.078;2023-04-23T13:36:59;14.20;;;7.20;;
53971;SDS011;40530;53.062;6.078;2023-04-23T13:39:29;4.22;;;1.45;;
53971;SDS011;40530;53.062;6.078;2023-04-23T13:41:55;6.80;;;2.05;;
53971;SDS011;40530;53.062;6.078;2023-04-23T13:44:21;6.05;;;1.23;;
53971;SDS011;40530;53.062;6.078;2023-04-23T13:46:48;9.90;;;1.83;;
53971;SDS011;40530;53.062;6.078;2023-04-23T13:49:15;5.22;;;1.60;;
53971;SDS011;40530;53.062;6.078;2023-04-23T13:51:41;5.10;;;1.38;;
53971;SDS011;40530;53.062;6.078;2023-04-23T13:54:07;5.25;;;1.73;;
53971;SDS011;40530;53.062;6.078;2023-04-23T13:56:34;5.47;;;2.25;;
53971;SDS011;40530;53.062;6.078;2023-04-23T13:59:00;9.50;;;4.82;;
53971;SDS011;40530;53.062;6.078;2023-04-23T14:01:28;36.72;;;23.67;;
53971;SDS011;40530;53.062;6.078;2023-04-23T14:03:54;8.50;;;2.47;;
53971;SDS011;40530;53.062;6.078;2023-04-23T14:06:21;8.98;;;1.85;;
53971;SDS011;40530;53.062;6.078;2023-04-23T14:08:47;6.65;;;1.63;;
53971;SDS011;40530;53.062;6.078;2023-04-23T14:11:13;6.65;;;1.63;;
53971;SDS011;40530;53.062;6.078;2023-04-23T14:13:39;3.75;;;1.20;;
53971;SDS011;40530;53.062;6.078;2023-04-23T14:16:05;6.70;;;2.38;;
53971;SDS011;40530;53.062;6.078;2023-04-23T14:18:31;3.90;;;1.45;;
53971;SDS011;40530;53.062;6.078;2023-04-23T14:20:58;6.25;;;1.40;;
53971;SDS011;40530;53.062;6.078;2023-04-23T14:25:51;6.70;;;1.75;;
53971;SDS011;40530;53.062;6.078;2023-04-23T14:28:28;4.03;;;1.23;;
53971;SDS011;40530;53.062;6.078;2023-04-23T14:30:58;8.27;;;1.83;;
53971;SDS011;40530;53.062;6.078;2023-04-23T14:33:24;4.90;;;1.30;;
53971;SDS011;40530;53.062;6.078;2023-04-23T14:35:51;5.38;;;1.40;;
53971;SDS011;40530;53.062;6.078;2023-04-23T14:38:18;7.30;;;1.38;;
53971;SDS011;40530;53.062;6.078;2023-04-23T14:40:44;4.80;;;1.10;;
53971;SDS011;40530;53.062;6.078;2023-04-23T14:43:10;5.40;;;1.40;;